Time;durP1;ratioP1;P1;durP2;ratioP2;P2;SDS_P1;SDS_P2;PMS_P1;PMS_P2;Temp;Humidity;BMP_temperature;BMP_pressure;BME280_temperature;BME280_humidity;BME280_pressure;Samples;Min_cycle;Max_cycle;Signal;HPM_P1;HPM_P2
2022/08/11 00:00:45;;;;;;;1.02;0.93;;;26.80;91.20;;;;;;5073717;28;20387;-49
2022/08/11 00:03:12;;;;;;;0.70;0.70;;;27.10;57.50;;;;;;5073122;28;20104;-51
2022/08/11 00:05:47;;;;;;;1.00;0.90;;;27.10;91.30;;;;;;5074209;28;20047;-50
2022/08/11 00:08:25;;;;;;;1.00;0.88;;;27.10;53.20;;;;;;5074556;28;20561;-48
2022/08/11 00:10:57;;;;;;;0.75;0.75;;;26.80;91.10;;;;;;5074295;28;20420;-49
2022/08/11 00:13:32;;;;;;;0.85;0.80;;;27.10;57.20;;;;;;5074468;28;20016;-51
2022/08/11 00:15:59;;;;;;;3.35;1.00;;;26.80;91.00;;;;;;5074199;28;20439;-52
2022/08/11 00:18:25;;;;;;;0.95;0.85;;;27.10;54.80;;;;;;5074096;28;20411;-51
2022/08/11 00:20:51;;;;;;;1.15;0.70;;;;;;;;;;5074041;28;20386;-51
2022/08/11 00:23:18;;;;;;;0.90;0.80;;;27.10;57.10;;;;;;5073999;28;20028;-52
2022/08/11 00:25:50;;;;;;;1.35;0.80;;;26.80;91.20;;;;;;5073858;28;20036;-51
2022/08/11 00:28:31;;;;;;;1.13;0.98;;;27.60;91.30;;;;;;5056014;28;20517;-54
2022/08/11 00:31:06;;;;;;;1.40;0.90;;;26.70;66.40;;;;;;5073800;28;20399;-51
2022/08/11 00:33:34;;;;;;;3.05;0.98;;;27.30;80.00;;;;;;5074062;28;20146;-50
2022/08/11 00:36:02;;;;;;;2.55;1.00;;;26.80;91.00;;;;;;5073681;28;20115;-50
2022/08/11 00:38:31;;;;;;;0.90;0.90;;;27.00;57.10;;;;;;5073665;28;20143;-50
2022/08/11 00:41:26;;;;;;;1.85;1.00;;;26.90;69.70;;;;;;5073625;28;20393;-51
2022/08/11 00:44:06;;;;;;;2.72;0.93;;;27.00;81.00;;;;;;5073839;28;20103;-50
2022/08/11 00:47:09;;;;;;;1.33;1.00;;;27.10;91.20;;;;;;5073521;28;20047;-51
2022/08/11 00:49:40;;;;;;;1.10;0.95;;;27.10;62.80;;;;;;5073386;28;20040;-52
2022/08/11 00:52:33;;;;;;;1.30;0.93;;;26.70;91.10;;;;;;5073423;28;20024;-51
2022/08/11 00:55:08;;;;;;;0.90;0.90;;;26.70;70.90;;;;;;5073064;28;20051;-51
2022/08/11 00:58:06;;;;;;;1.50;0.85;;;26.90;91.10;;;;;;5073305;28;20107;-51
2022/08/11 01:00:47;;;;;;;1.60;0.85;;;27.00;57.20;;;;;;5073425;28;20119;-50
2022/08/11 01:03:41;;;;;;;1.10;0.82;;;27.00;67.00;;;;;;5073180;28;20021;-51
2022/08/11 01:06:31;;;;;;;2.15;0.90;;;26.00;52.20;;;;;;5073116;28;20499;-51
2022/08/11 01:08:57;;;;;;;1.30;0.75;;;;;;;;;;5073081;28;20032;-52
2022/08/11 01:12:21;;;;;;;1.85;0.82;;;27.40;82.50;;;;;;5073004;28;20410;-52
2022/08/11 01:14:47;;;;;;;1.00;0.88;;;;;;;;;;4991113;28;20505;-50
2022/08/11 01:17:51;;;;;;;1.05;0.95;;;27.00;56.90;;;;;;4991362;28;20057;-53
2022/08/11 01:20:51;;;;;;;2.00;1.00;;;26.90;59.80;;;;;;5061955;28;20047;-51
2022/08/11 01:23:41;;;;;;;1.17;1.08;;;27.00;52.70;;;;;;5072881;28;20028;-51
2022/08/11 01:26:41;;;;;;;1.50;0.80;;;26.90;65.50;;;;;;5072658;28;20041;-51
2022/08/11 01:29:33;;;;;;;3.10;0.68;;;27.30;87.50;;;;;;5072951;28;20424;-53
2022/08/11 01:32:46;;;;;;;0.98;0.88;;;26.90;52.70;;;;;;5072643;28;20027;-50
2022/08/11 01:35:13;;;;;;;1.15;1.00;;;;;;;;;;5011134;28;20036;-51
2022/08/11 01:38:11;;;;;;;1.52;0.80;;;26.80;75.50;;;;;;5072541;28;20029;-51
2022/08/11 01:40:45;;;;;;;1.25;1.15;;;27.00;52.60;;;;;;5072583;28;20032;-51
2022/08/11 01:46:16;;;;;;;1.55;0.95;;;26.90;52.70;;;;;;5072624;28;20173;-52
2022/08/11 01:49:01;;;;;;;1.38;0.80;;;26.70;90.90;;;;;;5072374;28;20028;-51
2022/08/11 01:51:37;;;;;;;0.95;0.95;;;26.60;63.50;;;;;;5072356;28;20115;-53
2022/08/11 01:54:20;;;;;;;0.80;0.75;;;26.80;70.30;;;;;;5072320;28;20025;-52
2022/08/11 01:56:57;;;;;;;1.60;1.00;;;27.00;91.00;;;;;;5072242;28;20566;-51
2022/08/11 01:59:38;;;;;;;1.77;0.90;;;27.00;52.50;;;;;;5072381;28;20036;-50
2022/08/11 02:05:36;;;;;;;1.27;1.05;;;27.10;58.90;;;;;;5072408;28;20086;-50
2022/08/11 02:08:12;;;;;;;1.08;1.00;;;27.20;91.10;;;;;;5072212;28;20035;-52
2022/08/11 02:13:41;;;;;;;2.78;1.02;;;27.20;89.40;;;;;;5072459;28;20038;-50
2022/08/11 02:16:25;;;;;;;1.17;0.90;;;26.90;91.00;;;;;;5072183;28;20029;-51
2022/08/11 02:25:33;;;;;;;1.13;0.80;;;27.30;91.10;;;;;;5078711;28;20292;-51
2022/08/11 02:28:22;;;;;;;1.13;0.80;;;26.80;52.40;;;;;;5075016;28;20089;-52
2022/08/11 02:34:21;;;;;;;3.63;1.38;;;26.90;56.70;;;;;;5058299;28;20051;-51
2022/08/11 02:37:23;;;;;;;1.20;0.98;;;26.80;52.40;;;;;;5076074;28;20024;-54
2022/08/11 02:39:58;;;;;;;1.35;1.17;;;26.90;76.10;;;;;;5075861;28;20032;-53
2022/08/11 02:42:53;;;;;;;0.82;0.73;;;27.00;53.00;;;;;;5075885;28;20036;-51
2022/08/11 02:45:56;;;;;;;2.38;0.90;;;26.80;80.70;;;;;;5075751;28;20471;-51
2022/08/11 02:52:04;;;;;;;0.80;0.80;;;26.80;52.40;;;;;;5076005;28;20506;-51
2022/08/11 02:54:43;;;;;;;0.90;0.90;;;27.10;91.00;;;;;;5075485;28;20036;-54
2022/08/11 02:57:09;;;;;;;1.17;1.00;;;;;;;;;;5075653;28;20021;-56
2022/08/11 03:00:12;;;;;;;0.80;0.80;;;26.80;52.40;;;;;;5075552;28;20046;-56
2022/08/11 03:03:20;;;;;;;0.88;0.88;;;26.80;90.90;;;;;;5075509;28;20032;-57
2022/08/11 03:06:04;;;;;;;1.50;0.95;;;27.20;90.90;;;;;;5075574;28;20132;-56
2022/08/11 03:08:50;;;;;;;0.93;0.93;;;27.00;83.30;;;;;;5075382;28;20032;-57
2022/08/11 03:18:01;;;;;;;1.00;1.00;;;27.00;91.00;;;;;;5075552;28;20043;-56
2022/08/11 03:20:45;;;;;;;2.25;0.95;;;26.80;56.50;;;;;;5075146;28;20020;-57
2022/08/11 03:23:23;;;;;;;1.13;1.00;;;26.80;56.60;;;;;;5075347;28;20390;-56
2022/08/11 03:26:10;;;;;;;1.23;0.90;;;26.90;91.00;;;;;;5074997;28;20036;-56
2022/08/11 03:28:50;;;;;;;1.42;0.73;;;27.00;91.00;;;;;;5075151;28;20016;-57
2022/08/11 03:31:39;;;;;;;1.10;1.00;;;26.80;90.80;;;;;;5075044;28;20031;-56
2022/08/11 03:34:40;;;;;;;1.10;1.00;;;26.70;52.30;;;;;;5074881;28;20034;-55
2022/08/11 03:43:25;;;;;;;1.35;0.88;;;26.70;56.60;;;;;;5075117;28;20075;-56
2022/08/11 03:46:25;;;;;;;1.80;0.98;;;28.00;53.10;;;;;;5074939;28;20036;-57
2022/08/11 03:49:22;;;;;;;1.02;0.93;;;24.30;50.90;;;;;;5074657;28;20033;-55
2022/08/11 03:51:53;;;;;;;2.75;1.02;;;26.60;56.30;;;;;;5074742;28;20429;-55
2022/08/11 03:54:49;;;;;;;0.95;0.85;;;26.70;52.10;;;;;;5074298;28;20530;-56
2022/08/11 03:57:40;;;;;;;1.10;1.00;;;27.00;90.90;;;;;;5074500;28;20059;-56
2022/08/11 04:00:58;;;;;;;1.40;0.90;;;26.60;52.20;;;;;;5043504;28;20499;-56
2022/08/11 04:03:56;;;;;;;1.58;0.80;;;27.20;91.00;;;;;;4975040;28;20046;-57
2022/08/11 04:06:40;;;;;;;1.30;0.70;;;26.80;90.70;;;;;;5074187;28;20531;-57
2022/08/11 04:09:39;;;;;;;1.00;0.80;;;26.90;91.00;;;;;;5074378;28;20025;-56
2022/08/11 04:12:38;;;;;;;1.27;1.10;;;26.60;85.00;;;;;;5074286;28;20101;-57
2022/08/11 04:16:01;;;;;;;1.07;0.90;;;26.90;90.90;;;;;;5074202;28;20024;-58
2022/08/11 04:18:45;;;;;;;2.20;0.85;;;26.60;90.70;;;;;;5074074;28;20302;-56
2022/08/11 04:21:11;;;;;;;3.40;1.00;;;;;;;;;;5074320;28;20016;-56
2022/08/11 04:23:49;;;;;;;2.70;1.05;;;26.30;55.60;;;;;;5074036;28;20021;-55
2022/08/11 04:26:40;;;;;;;0.82;0.80;;;26.80;84.50;;;;;;5073953;28;20045;-57
2022/08/11 04:29:32;;;;;;;0.90;0.80;;;26.50;90.60;;;;;;5074093;28;20028;-56
2022/08/11 04:31:57;;;;;;;0.80;0.70;;;;;;;;;;5073838;28;20024;-56
2022/08/11 04:34:40;;;;;;;1.23;1.00;;;26.70;68.60;;;;;;5073788;28;20497;-56
2022/08/11 04:37:33;;;;;;;1.10;0.75;;;26.70;90.70;;;;;;5073888;28;20074;-57
2022/08/11 04:39:59;;;;;;;0.90;0.90;;;;;;;;;;5073693;28;20036;-56
2022/08/11 04:46:17;;;;;;;1.10;1.00;;;26.60;52.30;;;;;;5074002;28;20043;-56
2022/08/11 05:02:14;;;;;;;1.25;1.02;;;26.20;51.90;;;;;;5073577;28;20040;-57
2022/08/11 05:08:23;;;;;;;1.92;1.83;;;26.10;75.00;;;;;;5073187;28;20112;-56
2022/08/11 05:11:30;;;;;;;1.80;1.58;;;26.10;90.70;;;;;;5073359;28;20029;-57
2022/08/11 05:37:04;;;;;;;2.17;1.50;;;26.10;90.90;;;;;;5073153;28;20070;-54
2022/08/11 05:56:43;;;;;;;1.00;1.00;;;26.40;55.30;;;;;;5072346;28;20112;-55
2022/08/11 05:59:15;;;;;;;1.67;1.58;;;26.90;55.10;;;;;;5072382;28;20036;-55
2022/08/11 06:01:42;;;;;;;2.90;1.27;;;26.60;90.10;;;;;;5072376;28;20021;-55
2022/08/11 06:04:21;;;;;;;3.28;1.10;;;26.30;54.60;;;;;;5072170;28;20390;-55
2022/08/11 06:06:49;;;;;;;1.35;1.20;;;;;;;;;;5072240;28;20279;-54
2022/08/11 06:09:21;;;;;;;3.20;1.17;;;26.50;54.30;;;;;;5072238;28;20025;-53
2022/08/11 06:11:47;;;;;;;1.90;1.10;;;;;;;;;;5072305;28;20479;-56
2022/08/11 06:14:14;;;;;;;4.78;1.42;;;25.50;52.80;;;;;;5072228;28;20024;-54
2022/08/11 06:16:47;;;;;;;4.32;1.88;;;26.30;72.20;;;;;;5072267;28;20052;-52
2022/08/11 06:19:13;;;;;;;6.57;1.88;;;;;;;;;;5072249;28;20082;-55
2022/08/11 06:21:45;;;;;;;3.13;1.63;;;26.80;52.20;;;;;;5072096;28;20545;-54
2022/08/11 06:24:15;;;;;;;1.67;1.58;;;26.60;51.90;;;;;;5072397;28;20486;-55
2022/08/11 06:26:47;;;;;;;2.30;1.50;;;26.70;87.60;;;;;;5072032;28;20032;-54
2022/08/11 06:29:17;;;;;;;3.08;1.75;;;;;;;;;;5072148;28;20029;-55
2022/08/11 06:31:54;;;;;;;4.32;1.63;;;26.60;87.10;;;;;;5072062;28;20031;-55
2022/08/11 06:34:44;;;;;;;3.90;1.85;;;26.90;69.30;;;;;;5071911;28;20025;-57
2022/08/11 06:37:20;;;;;;;5.82;1.83;;;26.40;86.90;;;;;;5072001;28;20028;-54
2022/08/11 06:40:05;;;;;;;7.13;1.75;;;26.60;87.30;;;;;;5071902;28;20029;-56
2022/08/11 06:42:42;;;;;;;3.65;1.50;;;26.30;87.30;;;;;;5071739;28;20482;-56
2022/08/11 06:45:34;;;;;;;1.80;1.50;;;26.30;87.30;;;;;;5071818;28;20047;-56
2022/08/11 06:48:00;;;;;;;3.45;1.55;;;26.60;52.50;;;;;;5071707;28;20032;-56
2022/08/11 06:53:16;;;;;;;4.45;1.70;;;26.50;53.50;;;;;;5071758;28;20086;-57
2022/08/11 07:02:03;;;;;;;4.15;1.50;;;26.50;89.50;;;;;;5071949;28;20394;-56
2022/08/11 07:04:42;;;;;;;2.63;1.77;;;26.60;50.50;;;;;;5062583;28;20517;-56
2022/08/11 07:15:58;;;;;;;1.67;1.33;;;;;;;;;;5075316;28;20497;-56
2022/08/11 07:30:07;;;;;;;2.70;1.60;;;26.60;54.20;;;;;;5070484;28;20027;-57
2022/08/11 07:32:48;;;;;;;2.33;1.40;;;26.70;90.10;;;;;;5075029;28;20035;-56
2022/08/11 07:35:21;;;;;;;3.83;1.35;;;26.70;89.50;;;;;;5075164;28;20044;-57
2022/08/11 07:37:54;;;;;;;2.08;1.45;;;26.60;89.90;;;;;;5074729;28;20024;-57
2022/08/11 07:40:24;;;;;;;3.75;1.60;;;26.30;89.60;;;;;;5074700;28;20060;-57
2022/08/11 07:42:51;;;;;;;;;;;26.50;55.30;;;;;;5075156;28;20021;-57
2022/08/11 07:53:34;;;;;;;3.67;1.63;;;27.00;54.40;;;;;;5074970;28;20122;-56
2022/08/11 07:56:01;;;;;;;5.80;1.42;;;26.70;89.90;;;;;;5074454;28;20099;-55
2022/08/11 08:17:58;;;;;;;2.95;1.65;;;26.30;59.40;;;;;;5074538;28;20043;-57
2022/08/11 08:20:31;;;;;;;2.80;1.63;;;26.20;89.40;;;;;;5074255;28;20023;-56
2022/08/11 08:22:59;;;;;;;1.77;1.25;;;26.90;90.10;;;;;;5074054;28;20028;-54
2022/08/11 08:25:27;;;;;;;3.33;1.38;;;26.80;90.10;;;;;;5072761;28;20119;-53
2022/08/11 08:27:55;;;;;;;7.40;1.67;;;26.10;90.00;;;;;;5073986;28;20108;-52
2022/08/11 08:33:06;;;;;;;1.75;1.40;;;26.50;90.00;;;;;;5074399;28;20469;-54
2022/08/11 08:35:35;;;;;;;2.40;1.40;;;26.80;90.00;;;;;;5055883;28;20082;-54
2022/08/11 08:38:01;;;;;;;2.90;1.52;;;26.70;90.00;;;;;;5073793;28;20063;-51
2022/08/11 08:40:27;;;;;;;1.20;1.10;;;26.90;90.10;;;;;;5073696;28;20025;-54
2022/08/11 08:42:55;;;;;;;3.90;1.77;;;26.70;90.10;;;;;;5073913;28;20154;-51
2022/08/11 08:45:22;;;;;;;2.55;1.50;;;26.70;54.90;;;;;;5073531;28;20501;-52
2022/08/11 08:48:01;;;;;;;2.63;1.50;;;26.90;89.80;;;;;;5073888;28;20540;-51
2022/08/11 08:51:32;;;;;;;;;;;26.90;55.80;;;;;;5073944;28;20060;-53
2022/08/11 08:53:20;;;;;;;1.55;1.23;;;26.70;90.10;;;;;;5073277;28;19904;-51
2022/08/11 08:55:49;;;;;;;2.05;1.40;;;27.00;90.30;;;;;;5073188;28;20044;-51
2022/08/11 08:58:17;;;;;;;2.22;1.42;;;27.40;90.40;;;;;;5073381;28;20083;-51
2022/08/11 09:00:45;;;;;;;4.50;1.20;;;27.20;55.80;;;;;;5073232;28;20021;-51
2022/08/11 09:03:12;;;;;;;2.05;1.38;;;27.20;55.00;;;;;;5073313;28;20068;-50
2022/08/11 09:05:39;;;;;;;2.92;1.40;;;27.30;90.20;;;;;;5073373;28;20445;-53
2022/08/11 09:08:06;;;;;;;1.63;1.52;;;26.90;59.70;;;;;;5073146;28;20047;-55
2022/08/11 09:10:32;;;;;;;3.08;1.40;;;27.20;89.50;;;;;;5073013;28;20074;-55
2022/08/11 09:12:59;;;;;;;1.70;1.33;;;26.90;86.20;;;;;;5073020;28;20082;-56
2022/08/11 09:15:27;;;;;;;2.47;1.33;;;;;;;;;;5072993;28;20032;-56
2022/08/11 09:18:02;;;;;;;2.47;1.35;;;27.70;90.10;;;;;;5055734;28;20410;-56
2022/08/11 09:20:33;;;;;;;2.17;1.23;;;27.50;55.40;;;;;;5072938;28;20029;-56
2022/08/11 09:28:40;;;;;;;2.00;1.10;;;27.90;89.60;;;;;;5073047;28;20046;-56
2022/08/11 09:31:06;;;;;;;1.45;1.30;;;27.40;90.00;;;;;;5073331;28;20395;-57
2022/08/11 09:33:32;;;;;;;1.77;1.15;;;;;;;;;;5072592;28;20024;-56
2022/08/11 09:40:27;;;;;;;2.88;1.38;;;27.20;88.90;;;;;;5072640;28;20043;-57
2022/08/11 09:41:31;;;;;;;3.50;1.50;;;27.50;88.70;;;;;;5072972;28;20044;-57
2022/08/11 09:46:44;;;;;;;1.60;1.45;;;;;;;;;;5072510;28;20052;-56
2022/08/11 09:49:10;;;;;;;5.60;1.48;;;27.60;88.70;;;;;;5072438;28;20099;-57
2022/08/11 09:51:36;;;;;;;1.88;1.45;;;;;;;;;;5072530;28;20111;-57
2022/08/11 09:54:05;;;;;;;1.52;1.35;;;28.30;89.20;;;;;;5072409;28;20054;-56
2022/08/11 09:59:21;;;;;;;2.00;1.17;;;28.40;88.40;;;;;;5072776;28;20075;-56
2022/08/11 10:01:51;;;;;;;2.13;1.10;;;28.30;88.90;;;;;;5070990;28;20571;-56
2022/08/11 10:04:33;;;;;;;1.30;1.15;;;27.70;88.50;;;;;;5072370;28;20024;-56
2022/08/11 10:07:02;;;;;;;2.70;1.38;;;28.10;53.30;;;;;;5072272;28;20376;-54
2022/08/11 10:09:51;;;;;;;1.98;1.20;;;28.20;89.30;;;;;;5072318;28;20433;-55
2022/08/11 10:12:28;;;;;;;2.28;1.35;;;28.20;50.00;;;;;;5071942;28;20033;-55
2022/08/11 10:18:41;;;;;;;;;;;28.10;54.10;;;;;;5072850;28;20191;-56
2022/08/11 10:20:34;;;;;;;1.02;1.02;;;28.30;52.70;;;;;;5071783;28;19905;-55
2022/08/11 10:28:31;;;;;;;1.10;0.98;;;28.10;88.30;;;;;;5071964;28;20035;-55
2022/08/11 10:33:59;;;;;;;2.20;1.20;;;28.70;88.70;;;;;;5072104;28;20054;-56
2022/08/11 10:36:30;;;;;;;1.10;1.05;;;28.10;88.20;;;;;;5071946;28;20111;-51
2022/08/11 10:38:58;;;;;;;2.10;1.23;;;28.50;52.00;;;;;;5071801;28;20475;-54
2022/08/11 10:44:11;;;;;;;2.03;1.20;;;28.50;87.10;;;;;;5071946;28;20086;-52
2022/08/11 10:49:23;;;;;;;1.85;1.63;;;29.10;87.40;;;;;;5075331;28;20031;-52
2022/08/11 11:00:08;;;;;;;1.92;1.27;;;28.30;54.30;;;;;;5075667;28;20031;-49
2022/08/11 11:02:34;;;;;;;2.22;1.38;;;27.80;51.80;;;;;;5075650;28;20024;-49
2022/08/11 11:05:08;;;;;;;1.20;1.10;;;29.20;87.50;;;;;;5075701;28;20154;-50
2022/08/11 11:08:01;;;;;;;2.33;1.50;;;29.20;66.00;;;;;;5075516;28;20025;-49
2022/08/11 11:10:27;;;;;;;1.10;1.00;;;;;;;;;;5075481;28;20103;-49
2022/08/11 11:18:34;;;;;;;1.17;0.98;;;29.20;72.40;;;;;;5075501;28;20517;-48
2022/08/11 11:21:17;;;;;;;1.25;1.00;;;28.90;86.80;;;;;;5075461;28;20044;-51
2022/08/11 11:24:00;;;;;;;3.45;1.20;;;28.30;84.70;;;;;;5073736;28;20479;-50
2022/08/11 11:26:59;;;;;;;1.65;1.30;;;28.20;53.30;;;;;;5073651;28;20495;-50
2022/08/11 11:29:49;;;;;;;1.93;1.10;;;27.80;83.70;;;;;;5074952;28;20031;-50
2022/08/11 11:32:32;;;;;;;3.08;1.10;;;28.00;83.20;;;;;;5073541;28;20097;-52
2022/08/11 11:35:56;;;;;;;2.55;1.20;;;27.60;57.40;;;;;;5074845;28;20032;-49
2022/08/11 11:38:22;;;;;;;1.42;1.02;;;27.40;82.50;;;;;;4993052;28;20508;-50
2022/08/11 11:41:23;;;;;;;2.20;1.13;;;;;;;;;;4993248;28;20113;-50
2022/08/11 11:43:35;;;;;;;1.25;0.95;;;26.90;48.50;;;;;;5042052;28;20071;-50
2022/08/11 11:46:03;;;;;;;7.38;1.45;;;26.80;46.00;;;;;;5074461;28;20060;-51
2022/08/11 11:48:31;;;;;;;1.95;1.02;;;26.80;49.00;;;;;;5074592;28;20052;-49
2022/08/11 11:50:57;;;;;;;1.23;1.13;;;26.70;47.10;;;;;;5074480;28;20027;-50
2022/08/11 11:53:23;;;;;;;1.25;1.10;;;26.70;83.00;;;;;;5074332;28;20016;-49
2022/08/11 11:55:50;;;;;;;1.58;1.30;;;26.30;46.70;;;;;;5074010;28;20075;-49
2022/08/11 12:01:24;;;;;;;1.33;1.23;;;26.20;46.50;;;;;;5074502;28;20157;-50
2022/08/11 12:03:51;;;;;;;1.27;1.17;;;26.00;45.10;;;;;;5074371;28;20016;-51
2022/08/11 12:06:19;;;;;;;3.17;1.23;;;26.40;83.60;;;;;;5074258;28;20036;-49
2022/08/11 12:08:48;;;;;;;4.22;1.13;;;26.20;48.60;;;;;;5074080;28;20052;-49
2022/08/11 12:14:03;;;;;;;1.00;0.90;;;26.30;46.00;;;;;;5074547;28;20035;-49
2022/08/11 12:16:29;;;;;;;1.92;1.00;;;;;;;;;;5074328;28;20067;-49
2022/08/11 12:19:00;;;;;;;2.83;0.93;;;26.10;46.00;;;;;;5074322;28;20029;-50
2022/08/11 12:21:27;;;;;;;1.30;0.80;;;26.00;46.40;;;;;;5074034;28;20047;-50
2022/08/11 12:29:26;;;;;;;2.97;1.00;;;26.70;81.40;;;;;;5074379;28;20027;-52
2022/08/11 12:31:54;;;;;;;1.35;0.90;;;26.10;54.80;;;;;;5073825;28;20443;-50
2022/08/11 12:34:21;;;;;;;1.10;1.00;;;26.40;45.00;;;;;;5073692;28;20091;-48
2022/08/11 12:36:59;;;;;;;0.93;0.90;;;26.50;80.50;;;;;;5073634;28;20025;-51
2022/08/11 12:45:26;;;;;;;1.48;1.10;;;26.10;44.90;;;;;;5073573;28;20025;-49
2022/08/11 12:45:26;;;;;;;1.23;1.00;;;26.10;46.10;;;;;;5073429;28;20039;-51
2022/08/11 12:54:05;;;;;;;0.82;0.82;;;26.10;46.40;;;;;;5058485;28;20106;-53
2022/08/11 13:05:06;;;;;;;1.30;1.08;;;26.00;82.00;;;;;;5073016;28;20063;-51
2022/08/11 13:07:33;;;;;;;7.45;1.20;;;25.60;43.90;;;;;;5072947;28;20487;-53
2022/08/11 13:10:01;;;;;;;1.27;0.90;;;25.80;47.00;;;;;;5072644;28;20036;-50
2022/08/11 13:12:47;;;;;;;1.48;1.08;;;25.70;47.50;;;;;;5072718;28;20024;-50
2022/08/11 13:15:24;;;;;;;1.38;0.93;;;25.50;61.90;;;;;;5072902;28;20019;-51
2022/08/11 13:17:52;;;;;;;0.98;0.90;;;25.60;47.10;;;;;;5072866;28;20390;-51
2022/08/11 13:20:22;;;;;;;1.30;0.93;;;25.50;82.90;;;;;;5055061;28;20090;-49
2022/08/11 13:22:50;;;;;;;1.97;1.13;;;25.60;47.80;;;;;;5072851;28;20055;-51
2022/08/11 13:25:17;;;;;;;2.88;1.30;;;25.60;47.70;;;;;;5072680;28;20082;-50
2022/08/11 13:27:45;;;;;;;1.40;1.27;;;25.70;48.00;;;;;;5072925;28;20032;-50
2022/08/11 13:32:58;;;;;;;2.75;0.88;;;;;;;;;;5072831;28;20132;-49
2022/08/11 13:35:25;;;;;;;1.00;0.90;;;;;;;;;;5072595;28;20028;-50
2022/08/11 13:37:51;;;;;;;1.58;1.25;;;;;;;;;;5072517;28;20111;-49
2022/08/11 13:40:20;;;;;;;2.20;0.90;;;25.50;48.30;;;;;;5072555;28;20025;-50
2022/08/11 13:42:47;;;;;;;1.30;1.15;;;25.40;48.60;;;;;;5072306;28;20043;-52
2022/08/11 13:45:13;;;;;;;1.00;1.00;;;;;;;;;;5072324;28;20025;-49
2022/08/11 13:47:40;;;;;;;1.35;1.08;;;25.70;84.40;;;;;;5072279;28;20025;-50
2022/08/11 13:50:07;;;;;;;1.63;1.10;;;25.00;63.50;;;;;;5072465;28;20364;-50
2022/08/11 13:52:35;;;;;;;0.90;0.90;;;25.40;49.10;;;;;;5072293;28;20043;-49
2022/08/11 13:55:01;;;;;;;1.45;0.93;;;;;;;;;;5072068;28;20043;-50
2022/08/11 13:57:32;;;;;;;2.13;1.30;;;25.20;49.10;;;;;;5072260;28;20060;-50
2022/08/11 14:00:08;;;;;;;2.20;1.30;;;25.30;48.30;;;;;;5072246;28;20082;-50
2022/08/11 14:02:37;;;;;;;2.70;1.10;;;25.60;85.00;;;;;;5072177;28;20521;-50
2022/08/11 14:05:14;;;;;;;1.57;1.20;;;25.20;44.70;;;;;;5072156;28;20471;-50
2022/08/11 14:07:47;;;;;;;1.00;1.00;;;25.20;49.60;;;;;;5072061;28;20036;-49
2022/08/11 14:10:15;;;;;;;1.20;1.10;;;25.10;49.50;;;;;;5072257;28;20498;-49
2022/08/11 14:15:34;;;;;;;1.20;1.07;;;24.70;72.30;;;;;;5072421;28;20390;-48
2022/08/11 14:18:05;;;;;;;1.35;1.20;;;24.90;50.50;;;;;;5072078;28;20029;-49
2022/08/11 14:23:30;;;;;;;1.20;1.10;;;25.00;51.00;;;;;;5071301;28;20608;-49
2022/08/11 14:28:41;;;;;;;3.35;1.33;;;;;;;;;;5072181;28;20402;-49
2022/08/11 14:31:07;;;;;;;3.55;1.38;;;25.50;87.00;;;;;;5071881;28;20528;-49
2022/08/11 14:33:34;;;;;;;1.92;1.13;;;24.90;86.00;;;;;;5071871;28;20027;-49
2022/08/11 14:36:04;;;;;;;1.70;1.17;;;25.30;85.50;;;;;;5071846;28;20029;-49
2022/08/11 14:38:32;;;;;;;2.13;1.10;;;25.80;85.40;;;;;;5071935;28;20028;-49
2022/08/11 14:49:13;;;;;;;1.40;1.30;;;26.30;49.10;;;;;;5071934;28;20395;-54
2022/08/11 14:51:40;;;;;;;2.30;1.05;;;26.30;48.90;;;;;;5071723;28;20024;-53
2022/08/11 14:56:53;;;;;;;2.47;1.33;;;26.50;46.70;;;;;;5072023;28;20126;-53
2022/08/11 14:59:20;;;;;;;1.45;0.90;;;26.20;83.70;;;;;;5071769;28;20051;-52
2022/08/11 15:04:30;;;;;;;1.17;1.00;;;26.70;83.80;;;;;;5071724;28;20043;-51
2022/08/11 15:06:57;;;;;;;1.48;0.90;;;27.10;83.80;;;;;;5071776;28;20041;-50
2022/08/11 15:09:23;;;;;;;2.05;1.00;;;26.90;83.80;;;;;;5071595;28;20045;-52
2022/08/11 15:12:07;;;;;;;2.00;0.90;;;26.70;83.40;;;;;;5071693;28;20040;-54
2022/08/11 15:17:18;;;;;;;1.13;0.90;;;;;;;;;;5071894;28;20090;-52
2022/08/11 15:25:14;;;;;;;1.15;0.98;;;;;;;;;;5071770;28;20039;-49
2022/08/11 15:39:05;;;;;;;2.10;1.13;;;27.70;68.90;;;;;;5075281;28;20067;-50
2022/08/11 15:47:14;;;;;;;1.65;1.20;;;;;;;;;;5074877;28;20048;-49
2022/08/11 15:49:43;;;;;;;1.73;1.13;;;27.50;49.40;;;;;;5074849;28;20082;-49
2022/08/11 15:52:14;;;;;;;0.80;0.80;;;27.20;84.80;;;;;;5074762;28;20425;-50
2022/08/11 15:54:45;;;;;;;1.70;1.17;;;27.50;84.80;;;;;;5074445;28;20275;-50
2022/08/11 16:04:09;;;;;;;1.30;1.20;;;27.70;85.00;;;;;;5074629;28;20030;-49
2022/08/11 16:05:24;;;;;;;4.57;1.08;;;27.70;48.50;;;;;;5074591;28;20054;-49
2022/08/11 16:07:52;;;;;;;3.08;1.25;;;27.70;49.50;;;;;;5074367;28;20025;-50
2022/08/11 16:10:22;;;;;;;3.28;1.40;;;27.50;49.20;;;;;;5074394;28;20103;-49
2022/08/11 16:16:13;;;;;;;1.85;1.38;;;27.40;84.50;;;;;;5074233;28;20020;-49
2022/08/11 16:18:57;;;;;;;1.95;1.10;;;27.80;82.90;;;;;;5074455;28;20040;-50
2022/08/11 16:21:34;;;;;;;2.33;1.35;;;27.90;49.40;;;;;;5073928;28;20032;-50
2022/08/11 16:24:03;;;;;;;1.05;0.98;;;27.80;49.20;;;;;;5074194;28;20077;-49
2022/08/11 16:26:31;;;;;;;1.63;1.02;;;27.90;49.90;;;;;;5073922;28;20399;-49
2022/08/11 16:29:00;;;;;;;1.48;1.20;;;27.90;84.80;;;;;;5073960;28;20475;-49
2022/08/11 16:31:27;;;;;;;2.00;1.27;;;27.90;49.80;;;;;;5074145;28;20029;-50
2022/08/11 16:33:55;;;;;;;1.10;0.95;;;27.60;84.50;;;;;;5073924;28;20301;-48
2022/08/11 16:39:28;;;;;;;1.98;0.82;;;;;;;;;;5031650;28;20033;-54
2022/08/11 16:47:25;;;;;;;0.95;0.93;;;27.70;86.40;;;;;;5073272;28;20071;-53
2022/08/11 16:49:53;;;;;;;1.80;1.05;;;28.10;86.60;;;;;;5073691;28;20463;-51
2022/08/11 16:52:21;;;;;;;3.05;0.90;;;27.60;86.50;;;;;;5073579;28;20036;-52
2022/08/11 16:54:47;;;;;;;1.85;1.20;;;28.40;87.00;;;;;;5073339;28;20086;-54
2022/08/11 17:00:13;;;;;;;1.67;0.95;;;28.40;87.20;;;;;;5073901;28;20101;-55
2022/08/11 17:14:00;;;;;;;2.17;1.27;;;28.30;47.80;;;;;;5073062;28;20082;-53
2022/08/11 17:16:34;;;;;;;2.67;1.35;;;28.30;51.60;;;;;;5073191;28;20032;-53
2022/08/11 17:19:10;;;;;;;0.85;0.80;;;28.30;47.80;;;;;;5072984;28;20047;-52
2022/08/11 17:24:40;;;;;;;1.73;1.05;;;28.80;85.50;;;;;;5073055;28;20039;-50
2022/08/11 17:27:15;;;;;;;2.60;1.10;;;28.00;86.80;;;;;;5072729;28;20059;-51
2022/08/11 17:29:53;;;;;;;1.00;0.90;;;28.50;87.20;;;;;;5072640;28;20033;-52
2022/08/11 17:38:19;;;;;;;1.85;1.17;;;28.70;75.00;;;;;;5063310;28;20040;-53
2022/08/11 17:49:07;;;;;;;1.75;1.10;;;28.40;87.60;;;;;;5072460;28;20027;-49
2022/08/11 17:59:52;;;;;;;2.53;1.00;;;28.20;52.30;;;;;;5072332;28;20453;-50
2022/08/11 18:05:12;;;;;;;2.65;1.10;;;28.20;52.30;;;;;;5072426;28;20179;-50
